createdAt,value
2023-01-18T00:00:22.689Z,84.61
2023-01-18T00:02:55.771Z,84.82
2023-01-18T00:05:26.029Z,85.42
2023-01-18T00:07:56.741Z,86.03
2023-01-18T00:10:27.401Z,85.83
2023-01-18T00:13:04.118Z,85.94
2023-01-18T00:15:33.835Z,85.63
2023-01-18T00:18:03.284Z,85.22
2023-01-18T00:20:35.436Z,85.49
2023-01-18T00:23:04.650Z,85.50
2023-01-18T00:25:33.746Z,85.97
2023-01-18T00:28:05.207Z,85.89
2023-01-18T00:30:37.386Z,85.44
2023-01-18T00:33:06.470Z,85.11
2023-01-18T00:35:35.671Z,84.84
2023-01-18T00:38:08.435Z,84.47
2023-01-18T00:40:37.830Z,84.88
2023-01-18T00:43:37.160Z,84.90
2023-01-18T00:46:06.761Z,84.76
2023-01-18T00:48:36.357Z,84.32
2023-01-18T00:51:06.701Z,84.29
2023-01-18T00:53:43.064Z,84.17
2023-01-18T00:56:14.415Z,84.57
2023-01-18T00:58:45.576Z,83.74
2023-01-18T01:01:15.857Z,83.87
2023-01-18T01:04:02.702Z,83.17
2023-01-18T01:06:50.187Z,84.37
2023-01-18T01:09:23.483Z,84.83
2023-01-18T01:12:13.822Z,85.82
2023-01-18T01:15:04.416Z,86.04
2023-01-18T01:17:52.559Z,85.78
2023-01-18T01:20:39.267Z,86.75
2023-01-18T01:23:40.196Z,87.55
2023-01-18T01:26:17.091Z,87.32
2023-01-18T01:28:53.253Z,86.87
2023-01-18T01:31:25.257Z,86.35
2023-01-18T01:33:56.981Z,86.27
2023-01-18T01:36:29.149Z,85.89
2023-01-18T01:38:58.854Z,85.34
2023-01-18T01:41:30.697Z,85.09
2023-01-18T01:44:03.465Z,84.43
2023-01-18T01:46:37.407Z,84.09
2023-01-18T01:49:14.286Z,84.20
2023-01-18T01:51:44.722Z,84.20
2023-01-18T01:54:17.099Z,84.48
2023-01-18T01:56:48.134Z,83.96
2023-01-18T01:59:18.974Z,83.56
2023-01-18T02:01:50.319Z,84.22
2023-01-18T02:04:19.930Z,85.91
2023-01-18T02:06:49.331Z,86.06
2023-01-18T02:09:23.312Z,86.00
2023-01-18T02:11:54.079Z,86.22
2023-01-18T02:14:33.921Z,86.22
2023-01-18T02:17:17.171Z,85.64
2023-01-18T02:20:28.335Z,86.12
2023-01-18T02:23:31.037Z,85.93
2023-01-18T02:26:17.740Z,86.05
2023-01-18T02:28:52.061Z,85.68
2023-01-18T02:31:23.403Z,85.34
2023-01-18T02:34:09.085Z,84.03
2023-01-18T02:36:45.143Z,84.51
2023-01-18T02:39:23.868Z,85.67
2023-01-18T02:42:13.135Z,86.70
2023-01-18T02:45:05.385Z,85.96
2023-01-18T02:47:34.982Z,85.60
2023-01-18T02:50:05.107Z,86.05
2023-01-18T02:52:42.999Z,85.72
2023-01-18T02:55:18.439Z,85.62
2023-01-18T02:57:47.652Z,85.24
2023-01-18T03:00:19.409Z,85.38
2023-01-18T03:02:49.678Z,85.46
2023-01-18T03:05:19.937Z,86.17
2023-01-18T03:07:55.097Z,85.80
2023-01-18T03:10:28.494Z,86.17
2023-01-18T03:13:01.161Z,85.52
2023-01-18T03:15:38.601Z,85.60
2023-01-18T03:18:14.239Z,85.62
2023-01-18T03:20:48.696Z,86.07
2023-01-18T03:23:34.188Z,85.19
2023-01-18T03:26:05.207Z,85.67
2023-01-18T03:29:00.373Z,86.16
2023-01-18T03:31:57.292Z,86.68
2023-01-18T03:34:30.311Z,86.38
2023-01-18T03:37:03.618Z,86.84
2023-01-18T03:39:36.076Z,86.57
2023-01-18T03:42:07.831Z,86.92
2023-01-18T03:44:49.731Z,87.07
2023-01-18T03:47:21.081Z,87.39
2023-01-18T03:50:00.716Z,87.66
2023-01-18T03:52:37.816Z,88.08
2023-01-18T03:55:17.010Z,87.83
2023-01-18T03:58:01.921Z,88.20
2023-01-18T04:00:32.322Z,88.11
2023-01-18T04:03:05.912Z,88.72
2023-01-18T04:05:42.720Z,88.89
2023-01-18T04:08:42.631Z,90.21
2023-01-18T04:11:12.361Z,89.55
2023-01-18T04:13:44.621Z,89.00
2023-01-18T04:16:27.193Z,88.30
2023-01-18T04:19:04.729Z,87.44
2023-01-18T04:21:34.134Z,87.71
2023-01-18T04:24:03.409Z,88.58
2023-01-18T04:26:38.567Z,88.35
2023-01-18T04:29:18.600Z,89.26
2023-01-18T04:31:48.134Z,88.67
2023-01-18T04:34:22.553Z,88.94
2023-01-18T04:37:06.903Z,88.67
2023-01-18T04:40:09.791Z,88.58
2023-01-18T04:42:56.561Z,87.97
2023-01-18T04:45:27.628Z,87.93
2023-01-18T04:48:07.397Z,87.33
2023-01-18T04:51:17.762Z,88.23
2023-01-18T04:53:57.813Z,87.32
2023-01-18T04:56:29.403Z,86.54
2023-01-18T04:59:00.205Z,86.75
2023-01-18T05:01:38.989Z,86.31
2023-01-18T05:04:10.809Z,86.37
2023-01-18T05:06:41.626Z,86.31
2023-01-18T05:09:13.296Z,85.87
2023-01-18T05:12:35.942Z,85.99
2023-01-18T05:15:04.109Z,85.98
2023-01-18T05:17:37.097Z,85.57
2023-01-18T05:20:18.458Z,85.77
2023-01-18T05:23:14.468Z,85.69
2023-01-18T05:25:43.919Z,85.45
2023-01-18T05:28:19.152Z,85.23
2023-01-18T05:30:51.833Z,85.12
2023-01-18T05:33:30.349Z,84.78
2023-01-18T05:35:59.346Z,84.92
2023-01-18T05:38:41.345Z,84.58
2023-01-18T05:41:11.177Z,84.39
2023-01-18T05:43:43.948Z,84.40
2023-01-18T05:46:16.619Z,84.13
2023-01-18T05:48:53.702Z,84.28
2023-01-18T05:51:27.831Z,84.91
2023-01-18T05:54:03.062Z,84.37
2023-01-18T05:56:34.513Z,84.21
2023-01-18T05:59:05.250Z,84.11
2023-01-18T06:01:40.690Z,84.27
2023-01-18T06:04:13.106Z,84.19
2023-01-18T06:07:04.484Z,83.15
2023-01-18T06:12:59.273Z,84.07
2023-01-18T06:15:33.217Z,84.19
2023-01-18T06:18:05.843Z,83.63
2023-01-18T06:20:34.994Z,83.62
2023-01-18T06:23:04.378Z,83.63
2023-01-18T06:25:35.551Z,83.47
2023-01-18T06:28:12.623Z,83.72
2023-01-18T06:30:53.808Z,83.84
2023-01-18T06:33:29.106Z,83.26
2023-01-18T06:35:59.299Z,83.87
2023-01-18T06:38:30.936Z,83.73
2023-01-18T06:41:07.714Z,84.01
2023-01-18T06:43:37.002Z,84.13
2023-01-18T06:46:14.612Z,84.15
2023-01-18T06:48:44.633Z,85.33
2023-01-18T06:51:44.436Z,86.42
2023-01-18T06:54:21.628Z,87.76
2023-01-18T06:56:53.384Z,88.39
2023-01-18T06:59:22.772Z,88.55
2023-01-18T07:01:54.879Z,87.78
2023-01-18T07:04:24.024Z,88.06
2023-01-18T07:07:06.869Z,87.39
2023-01-18T07:09:36.028Z,87.62
2023-01-18T07:12:09.664Z,88.12
2023-01-18T07:14:49.103Z,87.66
2023-01-18T07:17:27.119Z,87.98
2023-01-18T07:19:56.907Z,87.70
2023-01-18T07:22:30.010Z,87.64
2023-01-18T07:25:02.694Z,87.41
2023-01-18T07:27:36.398Z,86.64
2023-01-18T07:30:33.662Z,86.99
2023-01-18T07:33:12.959Z,86.65
2023-01-18T07:36:03.183Z,86.38
2023-01-18T07:38:36.389Z,86.48
2023-01-18T07:41:12.812Z,86.57
2023-01-18T07:44:11.959Z,86.74
2023-01-18T07:46:44.112Z,86.86
2023-01-18T07:49:13.822Z,86.61
2023-01-18T07:51:47.109Z,87.17
2023-01-18T07:54:33.626Z,86.83
2023-01-18T07:57:04.440Z,86.65
2023-01-18T07:59:35.792Z,86.76
2023-01-18T08:02:12.768Z,86.62
2023-01-18T08:05:05.231Z,86.65
2023-01-18T08:07:35.607Z,86.62
2023-01-18T08:10:12.033Z,86.46
2023-01-18T08:13:39.604Z,86.36
2023-01-18T08:16:17.197Z,86.75
2023-01-18T08:18:47.074Z,86.65
2023-01-18T08:21:36.690Z,86.59
2023-01-18T08:24:29.130Z,86.31
2023-01-18T08:27:13.586Z,86.11
2023-01-18T08:29:49.138Z,87.07
2023-01-18T08:32:20.284Z,87.82
2023-01-18T08:34:49.646Z,87.84
2023-01-18T08:37:20.528Z,88.12
2023-01-18T08:39:49.624Z,87.64
2023-01-18T08:42:20.500Z,87.90
2023-01-18T08:45:01.410Z,87.91
2023-01-18T08:47:36.776Z,87.55
2023-01-18T08:50:09.351Z,87.30
2023-01-18T08:52:38.859Z,86.88
2023-01-18T08:55:13.074Z,86.92
2023-01-18T08:57:42.176Z,86.15
2023-01-18T09:00:18.750Z,85.41
2023-01-18T09:02:59.028Z,85.40
2023-01-18T09:05:29.034Z,85.40
2023-01-18T09:08:02.798Z,85.09
2023-01-18T09:10:37.775Z,84.59
2023-01-18T09:13:11.987Z,84.35
2023-01-18T09:15:40.975Z,84.14
2023-01-18T09:18:32.508Z,83.86
2023-01-18T09:21:23.576Z,84.04
2023-01-18T09:24:14.213Z,84.04
2023-01-18T09:26:52.407Z,83.30
2023-01-18T09:29:28.680Z,82.54
2023-01-18T09:31:57.765Z,81.99
2023-01-18T09:34:40.701Z,82.48
2023-01-18T09:37:10.522Z,82.90
2023-01-18T09:39:50.982Z,82.17
2023-01-18T09:42:23.422Z,82.11
2023-01-18T09:44:54.299Z,81.71
2023-01-18T09:47:43.252Z,81.92
2023-01-18T09:50:18.290Z,81.85
2023-01-18T09:52:53.630Z,81.65
2023-01-18T09:55:35.317Z,80.50
2023-01-18T09:58:13.836Z,80.97
2023-01-18T10:00:48.023Z,81.52
2023-01-18T10:03:21.968Z,81.34
2023-01-18T10:06:08.787Z,81.59
2023-01-18T10:08:51.372Z,81.33
2023-01-18T10:11:27.450Z,80.13
2023-01-18T10:14:14.668Z,80.80
2023-01-18T10:17:08.041Z,80.24
2023-01-18T10:19:37.317Z,79.90
2023-01-18T10:22:19.361Z,81.07
2023-01-18T10:25:00.209Z,80.21
2023-01-18T10:28:06.681Z,79.26
2023-01-18T10:30:57.691Z,79.71
2023-01-18T10:33:29.080Z,80.39
2023-01-18T10:36:03.780Z,79.66
2023-01-18T10:38:36.556Z,81.12
2023-01-18T10:41:06.330Z,80.76
2023-01-18T10:43:44.914Z,80.42
2023-01-18T10:46:15.924Z,80.31
2023-01-18T10:48:46.873Z,80.07
2023-01-18T10:51:33.471Z,78.53
2023-01-18T10:54:23.372Z,79.73
2023-01-18T10:57:03.351Z,78.58
2023-01-18T10:59:39.949Z,77.92
2023-01-18T11:02:20.385Z,77.73
2023-01-18T11:04:57.201Z,78.58
2023-01-18T11:07:36.658Z,78.64
2023-01-18T11:10:09.794Z,78.66
2023-01-18T11:12:48.125Z,78.25
2023-01-18T11:15:31.813Z,78.55
2023-01-18T11:18:03.072Z,79.62
2023-01-18T11:20:34.606Z,79.33
2023-01-18T11:23:18.446Z,78.81
2023-01-18T11:25:53.283Z,78.84
2023-01-18T11:28:31.267Z,79.17
2023-01-18T11:31:08.344Z,80.15
2023-01-18T11:33:42.087Z,79.13
2023-01-18T11:36:11.579Z,78.12
2023-01-18T11:38:41.903Z,78.90
2023-01-18T11:41:18.382Z,77.48
2023-01-18T11:43:59.178Z,77.57
2023-01-18T11:46:35.003Z,76.25
2023-01-18T11:49:11.781Z,75.61
2023-01-18T11:51:48.452Z,74.84
2023-01-18T11:54:26.832Z,74.20
2023-01-18T11:56:59.960Z,74.09
2023-01-18T11:59:32.429Z,73.51
2023-01-18T12:02:37.068Z,74.14
2023-01-18T12:05:33.087Z,73.30
2023-01-18T12:08:22.775Z,74.34
2023-01-18T12:11:00.566Z,74.43
2023-01-18T12:13:45.537Z,74.28
2023-01-18T12:16:31.692Z,74.71
2023-01-18T12:19:23.563Z,74.45
2023-01-18T12:22:08.823Z,74.39
2023-01-18T12:24:48.172Z,75.51
2023-01-18T12:27:24.763Z,76.07
2023-01-18T12:30:07.462Z,75.92
2023-01-18T12:33:02.476Z,76.33
2023-01-18T12:35:45.191Z,75.86
2023-01-18T12:38:19.203Z,75.92
2023-01-18T12:41:23.602Z,76.18
2023-01-18T12:44:02.346Z,76.72
2023-01-18T12:46:37.376Z,77.56
2023-01-18T12:49:19.201Z,79.85
2023-01-18T12:51:50.527Z,81.13
2023-01-18T12:54:26.898Z,81.05
2023-01-18T12:56:58.043Z,81.73
2023-01-18T12:59:30.751Z,81.27
2023-01-18T13:02:05.820Z,81.29
2023-01-18T13:04:40.796Z,80.81
2023-01-18T13:07:15.697Z,80.33
2023-01-18T13:09:51.165Z,79.75
2023-01-18T13:12:20.479Z,79.50
2023-01-18T13:14:56.321Z,80.13
2023-01-18T13:17:30.295Z,79.17
2023-01-18T13:20:05.777Z,78.81
2023-01-18T13:22:44.605Z,79.17
2023-01-18T13:25:39.920Z,78.49
2023-01-18T13:28:18.634Z,78.51
2023-01-18T13:30:56.826Z,77.64
2023-01-18T13:33:29.021Z,78.12
2023-01-18T13:35:59.851Z,78.49
2023-01-18T13:38:52.516Z,78.72
2023-01-18T13:41:26.105Z,76.71
2023-01-18T13:44:06.950Z,76.08
2023-01-18T13:46:39.611Z,75.90
2023-01-18T13:49:38.568Z,76.48
2023-01-18T13:52:33.965Z,77.28
2023-01-18T13:55:26.819Z,77.64
2023-01-18T13:57:57.302Z,78.11
2023-01-18T14:00:28.606Z,77.63
2023-01-18T14:03:08.859Z,77.62
2023-01-18T14:05:43.796Z,77.61
2023-01-18T14:08:19.851Z,77.23
2023-01-18T14:10:51.402Z,77.59
2023-01-18T14:14:10.480Z,77.45
2023-01-18T14:16:56.771Z,77.25
2023-01-18T14:19:27.710Z,77.16
2023-01-18T14:22:10.729Z,77.22
2023-01-18T14:25:01.868Z,76.58
2023-01-18T14:27:36.943Z,76.50
2023-01-18T14:30:33.284Z,76.73
2023-01-18T14:33:11.771Z,76.68
2023-01-18T14:35:40.951Z,76.38
2023-01-18T14:38:18.492Z,76.70
2023-01-18T14:40:49.950Z,77.11
2023-01-18T14:43:25.433Z,76.76
2023-01-18T14:45:59.132Z,76.50
2023-01-18T14:48:31.920Z,77.14
2023-01-18T14:51:01.654Z,77.38
2023-01-18T14:53:39.410Z,77.84
2023-01-18T14:56:12.656Z,76.76
2023-01-18T14:58:43.660Z,77.42
2023-01-18T15:01:27.588Z,77.56
2023-01-18T15:04:09.072Z,77.35
2023-01-18T15:06:45.257Z,78.12
2023-01-18T15:09:17.839Z,77.72
2023-01-18T15:11:47.220Z,77.44
2023-01-18T15:14:19.306Z,77.27
2023-01-18T15:16:49.221Z,77.51
2023-01-18T15:19:21.693Z,77.57
2023-01-18T15:21:50.907Z,77.80
2023-01-18T15:24:23.065Z,78.07
2023-01-18T15:26:54.396Z,78.30
2023-01-18T15:29:28.221Z,77.93
2023-01-18T15:31:59.581Z,77.46
2023-01-18T15:34:30.967Z,77.42
2023-01-18T15:37:04.618Z,77.13
2023-01-18T15:39:37.925Z,77.78
2023-01-18T15:42:11.005Z,77.62
2023-01-18T15:44:43.687Z,77.57
2023-01-18T15:47:22.977Z,77.50
2023-01-18T15:49:53.451Z,77.72
2023-01-18T15:52:44.954Z,78.22
2023-01-18T15:55:27.489Z,78.15
2023-01-18T15:58:01.416Z,78.68
2023-01-18T16:00:44.318Z,78.50
2023-01-18T16:03:22.424Z,78.80
2023-01-18T16:06:14.029Z,78.71
2023-01-18T16:09:00.510Z,79.32
2023-01-18T16:11:36.161Z,79.19
2023-01-18T16:14:13.312Z,79.65
2023-01-18T16:16:44.480Z,79.60
2023-01-18T16:19:28.694Z,79.63
2023-01-18T16:22:00.146Z,79.67
2023-01-18T16:24:35.889Z,79.70
2023-01-18T16:27:15.847Z,79.61
2023-01-18T16:29:53.725Z,79.68
2023-01-18T16:32:32.718Z,79.69
2023-01-18T16:35:06.685Z,79.68
2023-01-18T16:37:59.295Z,78.95
2023-01-18T16:40:29.971Z,78.78
2023-01-18T16:43:03.183Z,78.37
2023-01-18T16:45:35.285Z,78.62
2023-01-18T16:48:09.045Z,77.88
2023-01-18T16:50:39.866Z,77.62
2023-01-18T16:53:12.040Z,78.23
2023-01-18T16:55:44.309Z,78.20
2023-01-18T16:58:16.053Z,78.79
2023-01-18T17:00:51.763Z,79.02
2023-01-18T17:03:21.431Z,78.50
2023-01-18T17:05:50.830Z,78.87
2023-01-18T17:08:21.162Z,79.03
2023-01-18T17:10:51.976Z,78.69
2023-01-18T17:13:23.345Z,78.96
2023-01-18T17:16:08.821Z,78.76
2023-01-18T17:18:38.337Z,78.83
2023-01-18T17:21:07.834Z,79.08
2023-01-18T17:23:37.341Z,79.04
2023-01-18T17:26:30.929Z,78.96
2023-01-18T17:29:02.163Z,79.50
2023-01-18T17:31:55.629Z,79.33
2023-01-18T17:34:28.253Z,79.63
2023-01-18T17:37:06.109Z,79.57
2023-01-18T17:39:49.658Z,79.83
2023-01-18T17:42:30.186Z,79.96
2023-01-18T17:45:06.988Z,80.34
2023-01-18T17:47:39.054Z,80.52
2023-01-18T17:50:09.912Z,80.41
2023-01-18T17:52:43.183Z,80.46
2023-01-18T17:55:15.277Z,80.82
2023-01-18T17:57:44.961Z,80.75
2023-01-18T18:00:17.339Z,80.89
2023-01-18T18:02:53.111Z,80.95
2023-01-18T18:05:22.288Z,81.33
2023-01-18T18:07:54.658Z,81.42
2023-01-18T18:10:26.007Z,81.35
2023-01-18T18:12:55.515Z,81.43
2023-01-18T18:15:26.352Z,81.18
2023-01-18T18:17:55.941Z,81.49
2023-01-18T18:20:28.213Z,81.48
2023-01-18T18:23:29.796Z,81.76
2023-01-18T18:26:09.636Z,81.45
2023-01-18T18:28:39.040Z,81.15
2023-01-18T18:31:35.331Z,81.75
2023-01-18T18:34:08.981Z,81.59
2023-01-18T18:36:45.434Z,81.41
2023-01-18T18:39:14.545Z,81.05
2023-01-18T18:41:47.429Z,80.95
2023-01-18T18:44:20.097Z,81.51
2023-01-18T18:46:51.276Z,81.23
2023-01-18T18:49:20.642Z,81.20
2023-01-18T18:51:52.532Z,81.08
2023-01-18T18:54:25.985Z,80.95
2023-01-18T18:56:55.339Z,81.40
2023-01-18T18:59:24.314Z,81.44
2023-01-18T19:01:56.573Z,81.40
2023-01-18T19:04:41.030Z,81.57
2023-01-18T19:07:36.015Z,81.28
2023-01-18T19:10:05.665Z,81.12
2023-01-18T19:12:37.733Z,80.75
2023-01-18T19:15:08.146Z,81.09
2023-01-18T19:17:50.759Z,80.69
2023-01-18T19:20:23.409Z,80.54
2023-01-18T19:22:53.059Z,80.57
2023-01-18T19:25:25.509Z,80.56
2023-01-18T19:27:55.004Z,80.65
2023-01-18T19:30:47.378Z,81.01
2023-01-18T19:33:20.754Z,81.15
2023-01-18T19:35:49.969Z,80.75
2023-01-18T19:38:19.276Z,80.98
2023-01-18T19:40:48.474Z,80.77
2023-01-18T19:43:17.280Z,80.80
2023-01-18T19:45:46.672Z,81.02
2023-01-18T19:48:17.489Z,81.12
2023-01-18T19:50:47.724Z,81.15
2023-01-18T19:53:21.438Z,81.24
2023-01-18T19:56:02.902Z,80.48
2023-01-18T19:59:31.593Z,80.92
2023-01-18T20:02:03.397Z,80.74
2023-01-18T20:04:38.001Z,81.24
2023-01-18T20:07:07.226Z,80.75
2023-01-18T20:09:43.104Z,80.64
2023-01-18T20:12:14.199Z,81.18
2023-01-18T20:14:45.133Z,80.93
2023-01-18T20:17:15.875Z,81.04
2023-01-18T20:19:46.718Z,80.90
2023-01-18T20:22:16.093Z,81.21
2023-01-18T20:24:45.668Z,81.35
2023-01-18T20:27:17.428Z,81.20
2023-01-18T20:29:59.180Z,81.33
2023-01-18T20:32:31.260Z,81.42
2023-01-18T20:35:04.541Z,81.37
2023-01-18T20:37:34.262Z,81.33
2023-01-18T20:40:28.133Z,81.25
2023-01-18T20:42:57.353Z,81.15
2023-01-18T20:45:29.348Z,80.77
2023-01-18T20:47:58.697Z,81.19
2023-01-18T20:50:29.342Z,81.16
2023-01-18T20:52:58.939Z,81.02
2023-01-18T20:55:51.785Z,80.94
2023-01-18T20:58:19.853Z,81.20
2023-01-18T21:00:48.802Z,81.50
2023-01-18T21:03:21.002Z,81.08
2023-01-18T21:05:56.037Z,81.60
2023-01-18T21:08:25.437Z,82.07
2023-01-18T21:10:54.658Z,81.56
2023-01-18T21:13:24.881Z,81.47
2023-01-18T21:15:56.226Z,81.14
2023-01-18T21:18:38.227Z,81.10
2023-01-18T21:21:11.826Z,80.81
2023-01-18T21:23:41.964Z,80.81
2023-01-18T21:26:12.791Z,81.26
2023-01-18T21:28:42.394Z,81.30
2023-01-18T21:31:13.645Z,81.75
2023-01-18T21:34:09.565Z,81.79
2023-01-18T21:37:02.938Z,82.04
2023-01-18T21:39:44.017Z,82.00
2023-01-18T21:42:54.680Z,82.77
2023-01-18T21:45:41.431Z,82.68
2023-01-18T21:48:10.662Z,82.50
2023-01-18T21:51:22.802Z,82.79
2023-01-18T21:54:11.247Z,82.83
2023-01-18T21:56:40.555Z,83.60
2023-01-18T21:59:11.492Z,83.26
2023-01-18T22:01:42.908Z,83.52
2023-01-18T22:05:00.869Z,83.92
2023-01-18T22:07:31.597Z,83.63
2023-01-18T22:10:06.962Z,83.52
2023-01-18T22:12:39.214Z,84.43
2023-01-18T22:15:09.760Z,84.53
2023-01-18T22:18:04.553Z,84.71
2023-01-18T22:20:33.860Z,85.01
2023-01-18T22:23:03.330Z,85.35
2023-01-18T22:25:34.317Z,85.54
2023-01-18T22:28:04.313Z,85.46
2023-01-18T22:30:42.052Z,85.31
2023-01-18T22:33:21.254Z,85.73
2023-01-18T22:35:58.752Z,86.13
2023-01-18T22:38:28.015Z,86.73
2023-01-18T22:41:05.551Z,86.60
2023-01-18T22:43:49.288Z,86.83
2023-01-18T22:46:19.922Z,87.10
2023-01-18T22:48:49.943Z,87.40
2023-01-18T22:51:20.963Z,87.55
2023-01-18T22:53:52.736Z,87.74
2023-01-18T22:56:24.503Z,87.83
2023-01-18T22:59:01.479Z,88.10
2023-01-18T23:01:33.144Z,88.02
2023-01-18T23:04:05.320Z,88.25
2023-01-18T23:06:46.417Z,88.01
2023-01-18T23:09:17.746Z,87.68
2023-01-18T23:11:59.847Z,87.59
2023-01-18T23:14:46.850Z,87.42
2023-01-18T23:17:35.190Z,87.43
2023-01-18T23:20:15.365Z,87.13
2023-01-18T23:22:46.087Z,87.28
2023-01-18T23:25:18.872Z,87.29
2023-01-18T23:27:53.705Z,86.86
2023-01-18T23:30:29.964Z,86.53
2023-01-18T23:32:58.963Z,86.57
2023-01-18T23:35:28.159Z,86.82
2023-01-18T23:37:57.708Z,86.51
2023-01-18T23:40:44.321Z,86.40
2023-01-18T23:43:34.587Z,86.19
2023-01-18T23:46:31.980Z,85.87
2023-01-18T23:49:18.487Z,85.41
2023-01-18T23:52:05.211Z,84.63
2023-01-18T23:54:37.310Z,84.45
2023-01-18T23:57:09.481Z,83.94
2023-01-18T23:59:41.755Z,84.06
